Time;durP1;ratioP1;P1;durP2;ratioP2;P2;SDS_P1;SDS_P2;PMS_P1;PMS_P2;Temp;Humidity;BMP_temperature;BMP_pressure;BME280_temperature;BME280_humidity;BME280_pressure;Samples;Min_cycle;Max_cycle;Signal;HPM_P1;HPM_P2
2023/05/22 00:00:43;;;;;;;14.63;7.43;;;;;;;;;;10467083;28;20033;-79
2023/05/22 00:05:47;;;;;;;17.40;8.25;;;;;;;;;;10469768;28;20063;-80
2023/05/22 00:10:50;;;;;;;15.65;8.02;;;;;;;;;;10461156;28;20033;-79
2023/05/22 00:15:53;;;;;;;23.60;7.45;;;;;;;;;;10459960;28;20037;-78
2023/05/22 00:20:57;;;;;;;14.85;7.50;;;;;;;;;;10470539;28;20098;-79
2023/05/22 00:25:59;;;;;;;16.75;7.15;;;;;;;;;;10462388;28;20472;-78
2023/05/22 00:31:03;;;;;;;16.03;7.43;;;;;;;;;;10471606;28;20044;-78
2023/05/22 00:36:07;;;;;;;16.43;8.00;;;;;;;;;;10471064;28;20083;-79
2023/05/22 00:41:10;;;;;;;20.25;8.15;;;;;;;;;;10465871;28;20055;-79
2023/05/22 00:46:13;;;;;;;17.40;8.27;;;;;;;;;;10470198;28;20505;-79
2023/05/22 00:51:18;;;;;;;14.57;7.43;;;;;;;;;;10462359;28;20063;-78
2023/05/22 00:56:21;;;;;;;16.63;8.30;;;;;;;;;;10466955;28;20074;-78
2023/05/22 01:01:32;;;;;;;17.70;8.52;;;;;;;;;;10478350;28;20072;-78
2023/05/22 01:06:37;;;;;;;18.25;8.55;;;;;;;;;;10480246;28;20040;-79
2023/05/22 01:11:42;;;;;;;22.52;9.07;;;;;;;;;;10482399;28;20041;-79
2023/05/22 01:16:49;;;;;;;15.30;7.80;;;;;;;;;;10480175;28;20127;-79
2023/05/22 01:22:01;;;;;;;17.55;8.30;;;;;;;;;;10480837;28;20032;-79
2023/05/22 01:27:24;;;;;;;19.65;8.60;;;;;;;;;;10469763;28;22045;-79
2023/05/22 01:32:29;;;;;;;17.48;8.15;;;;;;;;;;10477908;28;20036;-79
2023/05/22 01:37:32;;;;;;;17.90;7.65;;;;;;;;;;10475375;28;20713;-79
2023/05/22 01:42:35;;;;;;;18.45;8.07;;;;;;;;;;10473775;28;20040;-79
2023/05/22 01:47:39;;;;;;;17.45;7.72;;;;;;;;;;10475004;28;20049;-78
2023/05/22 01:52:45;;;;;;;15.02;7.68;;;;;;;;;;10474998;28;20398;-78
2023/05/22 01:57:52;;;;;;;18.83;7.95;;;;;;;;;;10470581;28;20049;-78
2023/05/22 02:02:58;;;;;;;14.93;7.03;;;;;;;;;;10476757;28;20297;-80
2023/05/22 02:08:02;;;;;;;16.92;7.97;;;;;;;;;;10473405;28;20048;-78
2023/05/22 02:13:04;;;;;;;14.70;7.40;;;;;;;;;;10482533;28;20036;-77
2023/05/22 02:18:12;;;;;;;15.00;7.70;;;;;;;;;;10471180;28;20165;-77
2023/05/22 02:23:14;;;;;;;19.33;7.75;;;;;;;;;;10478286;28;20101;-79
2023/05/22 02:28:17;;;;;;;16.98;7.80;;;;;;;;;;10470270;28;20040;-79
2023/05/22 02:33:21;;;;;;;16.48;7.22;;;;;;;;;;10473001;28;20047;-78
2023/05/22 02:38:23;;;;;;;12.88;6.40;;;;;;;;;;10477856;28;20071;-79
2023/05/22 02:43:26;;;;;;;16.75;7.47;;;;;;;;;;10471294;28;20132;-78
2023/05/22 02:48:31;;;;;;;16.00;7.30;;;;;;;;;;10459642;28;20053;-80
2023/05/22 02:53:34;;;;;;;15.70;7.60;;;;;;;;;;10476389;28;20119;-80
2023/05/22 02:58:36;;;;;;;15.15;7.75;;;;;;;;;;10477248;28;20048;-82
2023/05/22 03:03:42;;;;;;;17.60;7.80;;;;;;;;;;10474379;28;20128;-80
2023/05/22 03:08:47;;;;;;;20.88;9.13;;;;;;;;;;10480501;28;20421;-80
2023/05/22 03:13:49;;;;;;;16.15;8.57;;;;;;;;;;10475546;28;20124;-80
2023/05/22 03:19:06;;;;;;;22.05;9.20;;;;;;;;;;10478599;28;20428;-80
2023/05/22 03:24:09;;;;;;;18.45;9.10;;;;;;;;;;10469417;28;20044;-80
2023/05/22 03:29:12;;;;;;;21.60;10.03;;;;;;;;;;10467262;28;20929;-79
2023/05/22 03:34:16;;;;;;;19.38;9.07;;;;;;;;;;10476605;28;20043;-79
2023/05/22 03:39:18;;;;;;;;;;;;;;;;;;10476006;28;20129;-79
2023/05/22 03:44:21;;;;;;;19.85;8.38;;;;;;;;;;10459054;28;19921;-78
2023/05/22 03:49:25;;;;;;;20.25;9.07;;;;;;;;;;10479760;28;20400;-80
2023/05/22 03:54:27;;;;;;;;;;;;;;;;;;10471218;28;20037;-78
2023/05/22 03:59:30;;;;;;;17.38;8.45;;;;;;;;;;10473240;28;19920;-78
2023/05/22 04:04:37;;;;;;;18.38;8.73;;;;;;;;;;10456535;28;20037;-79
2023/05/22 04:09:40;;;;;;;18.73;8.77;;;;;;;;;;10475210;28;20556;-78
2023/05/22 04:14:43;;;;;;;18.40;8.98;;;;;;;;;;10471402;28;20041;-78
2023/05/22 04:19:47;;;;;;;18.45;8.90;;;;;;;;;;10472738;28;20056;-78
2023/05/22 04:24:50;;;;;;;18.27;8.82;;;;;;;;;;10468886;28;20098;-77
2023/05/22 04:29:52;;;;;;;21.73;8.82;;;;;;;;;;10470837;28;20048;-78
2023/05/22 04:34:59;;;;;;;20.65;9.10;;;;;;;;;;10477838;28;20117;-76
2023/05/22 04:40:06;;;;;;;18.42;8.95;;;;;;;;;;10479435;28;20077;-78
2023/05/22 04:45:09;;;;;;;20.20;9.05;;;;;;;;;;10478041;28;20401;-79
2023/05/22 04:50:15;;;;;;;20.13;9.30;;;;;;;;;;10476353;28;20495;-79
2023/05/22 04:55:17;;;;;;;21.55;8.93;;;;;;;;;;10473448;28;20369;-77
2023/05/22 05:00:25;;;;;;;19.37;8.93;;;;;;;;;;10485181;28;20048;-78
2023/05/22 05:05:29;;;;;;;18.70;8.57;;;;;;;;;;10475106;28;20056;-78
2023/05/22 05:10:32;;;;;;;16.85;7.95;;;;;;;;;;10479333;28;20047;-79
2023/05/22 05:15:34;;;;;;;14.77;7.80;;;;;;;;;;10477359;28;20119;-79
2023/05/22 05:20:38;;;;;;;18.77;7.55;;;;;;;;;;10474671;28;20058;-79
2023/05/22 05:25:41;;;;;;;16.35;7.68;;;;;;;;;;10473610;28;20051;-78
2023/05/22 05:30:43;;;;;;;14.82;7.25;;;;;;;;;;10484830;28;20082;-78
2023/05/22 05:35:49;;;;;;;11.02;5.32;;;;;;;;;;10463810;28;20050;-78
2023/05/22 05:40:51;;;;;;;9.98;5.38;;;;;;;;;;10468677;28;20052;-78
2023/05/22 05:45:54;;;;;;;14.07;6.85;;;;;;;;;;10476069;28;20135;-78
2023/05/22 05:50:58;;;;;;;13.15;7.13;;;;;;;;;;10476077;28;20036;-78
2023/05/22 05:56:00;;;;;;;14.90;6.28;;;;;;;;;;10477665;28;20351;-78
2023/05/22 06:01:03;;;;;;;17.40;7.60;;;;;;;;;;10475643;28;20079;-78
2023/05/22 06:06:07;;;;;;;13.30;6.20;;;;;;;;;;10480223;28;20036;-78
2023/05/22 06:11:10;;;;;;;10.52;5.63;;;;;;;;;;10475282;28;20447;-79
2023/05/22 06:16:13;;;;;;;14.20;6.87;;;;;;;;;;10472546;28;20067;-77
2023/05/22 06:21:19;;;;;;;9.53;5.03;;;;;;;;;;10469782;28;20073;-81
2023/05/22 06:26:24;;;;;;;8.43;3.67;;;;;;;;;;10476790;28;20037;-79
2023/05/22 06:31:27;;;;;;;13.43;6.40;;;;;;;;;;10473680;28;20577;-80
2023/05/22 06:36:33;;;;;;;11.73;5.85;;;;;;;;;;10474566;28;20561;-81
2023/05/22 06:41:36;;;;;;;11.45;6.07;;;;;;;;;;10469452;28;20036;-78
2023/05/22 06:46:38;;;;;;;12.00;4.90;;;;;;;;;;10471251;28;20048;-79
2023/05/22 06:51:43;;;;;;;10.33;4.97;;;;;;;;;;10468350;28;20486;-79
2023/05/22 06:56:45;;;;;;;15.23;6.18;;;;;;;;;;10465859;28;20505;-78
2023/05/22 07:01:48;;;;;;;9.10;3.53;;;;;;;;;;10469157;28;20132;-78
2023/05/22 07:06:52;;;;;;;11.68;5.55;;;;;;;;;;10469009;28;20044;-80
2023/05/22 07:11:55;;;;;;;11.32;5.30;;;;;;;;;;10472683;28;20205;-79
2023/05/22 07:16:57;;;;;;;8.30;3.60;;;;;;;;;;10470466;28;20384;-79
2023/05/22 07:22:02;;;;;;;12.87;6.30;;;;;;;;;;10470902;28;20039;-81
2023/05/22 07:27:04;;;;;;;12.48;6.47;;;;;;;;;;10473858;28;20398;-81
2023/05/22 07:32:07;;;;;;;12.88;5.78;;;;;;;;;;10453584;28;20037;-81
2023/05/22 07:37:12;;;;;;;13.82;6.07;;;;;;;;;;10467886;28;20040;-79
2023/05/22 07:42:15;;;;;;;11.23;6.10;;;;;;;;;;10468221;28;20037;-79
2023/05/22 07:47:18;;;;;;;12.15;6.22;;;;;;;;;;10451019;28;20528;-80
2023/05/22 07:52:22;;;;;;;9.85;6.25;;;;;;;;;;10469417;28;20106;-79
2023/05/22 07:57:25;;;;;;;11.40;6.82;;;;;;;;;;10470557;28;20090;-80
2023/05/22 08:02:32;;;;;;;12.60;7.30;;;;;;;;;;10472936;28;20045;-81
2023/05/22 08:07:37;;;;;;;10.07;6.97;;;;;;;;;;10472375;28;20123;-81
2023/05/22 08:12:39;;;;;;;9.98;7.70;;;;;;;;;;10480394;28;20102;-81
2023/05/22 08:17:42;;;;;;;10.93;6.80;;;;;;;;;;10482903;28;20140;-80
2023/05/22 08:22:47;;;;;;;10.50;7.72;;;;;;;;;;10482515;28;20600;-82
2023/05/22 08:27:50;;;;;;;13.32;8.30;;;;;;;;;;10479308;28;20044;-82
2023/05/22 08:32:53;;;;;;;9.93;7.72;;;;;;;;;;10481281;28;20526;-82
2023/05/22 08:37:57;;;;;;;10.85;7.95;;;;;;;;;;10482903;28;20048;-82
2023/05/22 08:43:00;;;;;;;10.48;8.18;;;;;;;;;;10477943;28;20088;-81
2023/05/22 08:48:04;;;;;;;12.02;8.18;;;;;;;;;;10478129;28;20045;-81
2023/05/22 08:53:11;;;;;;;10.57;7.85;;;;;;;;;;10463981;28;20036;-81
2023/05/22 08:58:14;;;;;;;9.80;7.68;;;;;;;;;;10478285;28;20040;-81
2023/05/22 09:03:20;;;;;;;10.27;8.20;;;;;;;;;;10458958;28;20107;-81
2023/05/22 09:08:24;;;;;;;10.60;8.90;;;;;;;;;;10474319;28;20540;-82
2023/05/22 09:13:28;;;;;;;10.57;8.10;;;;;;;;;;10474185;28;20055;-82
2023/05/22 09:18:31;;;;;;;11.80;8.82;;;;;;;;;;10478216;28;20076;-81
2023/05/22 09:23:36;;;;;;;18.85;9.02;;;;;;;;;;10479291;28;20059;-81
2023/05/22 09:28:39;;;;;;;15.18;9.02;;;;;;;;;;10475366;28;20505;-82
2023/05/22 09:33:44;;;;;;;36.30;9.10;;;;;;;;;;10475786;28;20509;-82
2023/05/22 09:38:48;;;;;;;10.60;8.10;;;;;;;;;;10474085;28;20075;-82
2023/05/22 09:43:50;;;;;;;11.63;9.02;;;;;;;;;;10473046;28;20041;-82
2023/05/22 09:48:53;;;;;;;10.45;9.15;;;;;;;;;;10475231;28;20048;-83
2023/05/22 09:54:02;;;;;;;12.10;9.55;;;;;;;;;;10476485;28;20454;-81
2023/05/22 09:59:08;;;;;;;13.63;9.98;;;;;;;;;;10466512;28;20059;-81
2023/05/22 10:04:13;;;;;;;11.10;9.88;;;;;;;;;;10468989;28;20063;-81
2023/05/22 10:09:18;;;;;;;11.25;9.70;;;;;;;;;;10471425;28;20447;-81
2023/05/22 10:14:21;;;;;;;11.70;8.88;;;;;;;;;;10473708;28;20033;-81
2023/05/22 10:19:27;;;;;;;13.38;9.18;;;;;;;;;;10467063;28;20044;-80
2023/05/22 10:24:32;;;;;;;11.43;9.48;;;;;;;;;;10475775;28;22139;-81
2023/05/22 10:29:38;;;;;;;12.30;9.75;;;;;;;;;;10475836;28;20040;-81
2023/05/22 10:34:48;;;;;;;10.70;9.60;;;;;;;;;;10466427;28;20374;-81
2023/05/22 10:40:00;;;;;;;12.13;9.38;;;;;;;;;;10466128;28;20055;-81
2023/05/22 10:45:04;;;;;;;9.70;8.27;;;;;;;;;;10467773;28;20044;-81
2023/05/22 10:50:08;;;;;;;10.73;8.85;;;;;;;;;;10484457;28;20059;-82
2023/05/22 10:55:13;;;;;;;13.88;9.15;;;;;;;;;;10474672;28;20392;-81
2023/05/22 11:00:18;;;;;;;11.32;10.02;;;;;;;;;;10475481;28;20447;-81
2023/05/22 11:05:34;;;;;;;14.13;10.20;;;;;;;;;;10474956;28;20559;-82
2023/05/22 11:10:53;;;;;;;13.93;10.15;;;;;;;;;;10471396;28;20037;-82
2023/05/22 11:15:57;;;;;;;15.40;9.00;;;;;;;;;;10464345;28;20028;-82
2023/05/22 11:21:00;;;;;;;10.88;9.38;;;;;;;;;;10477973;28;20506;-82
2023/05/22 11:26:22;;;;;;;10.77;8.80;;;;;;;;;;10469807;28;20239;-81
2023/05/22 11:31:33;;;;;;;13.10;9.00;;;;;;;;;;10470986;28;20140;-81
2023/05/22 11:36:43;;;;;;;12.27;9.88;;;;;;;;;;10471962;28;20044;-82
2023/05/22 11:41:55;;;;;;;11.60;8.80;;;;;;;;;;10470541;28;20508;-81
2023/05/22 11:47:04;;;;;;;10.57;9.30;;;;;;;;;;10473297;28;20047;-81
2023/05/22 11:52:08;;;;;;;11.13;9.57;;;;;;;;;;10472906;28;20059;-82
2023/05/22 11:57:16;;;;;;;12.57;8.48;;;;;;;;;;10463587;28;20040;-80
2023/05/22 12:02:29;;;;;;;13.55;8.95;;;;;;;;;;10465755;28;20057;-81
2023/05/22 12:07:34;;;;;;;14.40;8.80;;;;;;;;;;10469320;28;20048;-82
2023/05/22 12:12:39;;;;;;;13.80;8.30;;;;;;;;;;10447289;28;20044;-81
2023/05/22 12:17:53;;;;;;;10.95;8.10;;;;;;;;;;10471121;28;20389;-81
2023/05/22 12:23:10;;;;;;;10.60;8.43;;;;;;;;;;10459635;28;20402;-82
2023/05/22 12:28:28;;;;;;;10.77;8.20;;;;;;;;;;10457825;28;20040;-81
2023/05/22 12:39:07;;;;;;;9.93;7.75;;;;;;;;;;10463934;28;20044;-81
2023/05/22 12:44:16;;;;;;;12.32;7.72;;;;;;;;;;10465221;28;20063;-81
2023/05/22 12:49:38;;;;;;;14.82;8.38;;;;;;;;;;10454963;28;20539;-80
2023/05/22 12:54:46;;;;;;;11.77;9.50;;;;;;;;;;10469391;28;20033;-80
2023/05/22 12:59:55;;;;;;;16.35;9.43;;;;;;;;;;10466827;28;20037;-80
2023/05/22 13:05:08;;;;;;;13.48;9.38;;;;;;;;;;10476769;28;20569;-80
2023/05/22 13:10:21;;;;;;;12.70;8.95;;;;;;;;;;10477687;28;20048;-80
2023/05/22 13:15:28;;;;;;;16.25;9.90;;;;;;;;;;10464780;28;20104;-80
2023/05/22 13:20:34;;;;;;;15.25;10.52;;;;;;;;;;10482889;28;20383;-80
2023/05/22 13:25:46;;;;;;;17.30;9.88;;;;;;;;;;10477148;28;20048;-80
2023/05/22 13:30:55;;;;;;;13.77;9.30;;;;;;;;;;10459041;28;20048;-80
2023/05/22 13:41:22;;;;;;;12.55;8.82;;;;;;;;;;10473397;28;20045;-81
2023/05/22 13:46:26;;;;;;;13.68;8.60;;;;;;;;;;10475086;28;20124;-80
2023/05/22 13:51:32;;;;;;;14.77;7.80;;;;;;;;;;10466015;28;20453;-80
2023/05/22 13:56:40;;;;;;;13.77;7.38;;;;;;;;;;10475863;28;20037;-80
2023/05/22 14:01:48;;;;;;;9.82;7.22;;;;;;;;;;10478133;28;20421;-79
2023/05/22 14:06:54;;;;;;;12.55;6.80;;;;;;;;;;10475535;28;20072;-79
2023/05/22 14:12:08;;;;;;;10.98;6.95;;;;;;;;;;10471134;28;20065;-80
2023/05/22 14:17:17;;;;;;;11.43;6.65;;;;;;;;;;10471680;28;20128;-80
2023/05/22 14:22:21;;;;;;;10.70;6.75;;;;;;;;;;10471146;28;20171;-80
2023/05/22 14:27:32;;;;;;;11.60;6.88;;;;;;;;;;10470668;28;20037;-81
2023/05/22 14:32:44;;;;;;;9.68;6.53;;;;;;;;;;10473353;28;20327;-81
2023/05/22 14:37:59;;;;;;;9.70;6.65;;;;;;;;;;10473923;28;20048;-80
2023/05/22 14:48:32;;;;;;;10.80;6.40;;;;;;;;;;10470662;28;20055;-80
2023/05/22 14:53:41;;;;;;;10.93;6.65;;;;;;;;;;10474143;28;20036;-79
2023/05/22 14:58:54;;;;;;;10.90;5.95;;;;;;;;;;10478193;28;20564;-79
2023/05/22 15:03:57;;;;;;;12.45;7.15;;;;;;;;;;10474565;28;20052;-79
2023/05/22 15:09:03;;;;;;;8.68;5.30;;;;;;;;;;10472646;28;20063;-79
2023/05/22 15:14:20;;;;;;;9.65;6.22;;;;;;;;;;10463061;28;20148;-80
2023/05/22 15:19:31;;;;;;;9.75;5.93;;;;;;;;;;10470997;28;20395;-81
2023/05/22 15:24:42;;;;;;;13.52;8.13;;;;;;;;;;10467225;28;20521;-79
2023/05/22 15:29:50;;;;;;;9.75;6.55;;;;;;;;;;10475434;28;20052;-79
2023/05/22 15:35:00;;;;;;;6.95;4.40;;;;;;;;;;10458544;28;20481;-80
2023/05/22 15:40:11;;;;;;;6.13;3.35;;;;;;;;;;10473125;28;20745;-80
2023/05/22 15:45:35;;;;;;;7.32;4.40;;;;;;;;;;10472708;28;20158;-81
2023/05/22 15:56:09;;;;;;;6.00;4.03;;;;;;;;;;10457009;28;20098;-80
2023/05/22 16:01:28;;;;;;;5.53;3.00;;;;;;;;;;10471818;28;20601;-80
2023/05/22 16:06:43;;;;;;;5.87;3.50;;;;;;;;;;10470057;28;20418;-80
2023/05/22 16:17:31;;;;;;;7.72;4.32;;;;;;;;;;10472601;28;20041;-80
2023/05/22 16:22:50;;;;;;;11.48;4.05;;;;;;;;;;10459462;28;20052;-80
2023/05/22 16:28:07;;;;;;;10.43;4.75;;;;;;;;;;10463218;28;20139;-80
2023/05/22 16:33:30;;;;;;;9.70;5.20;;;;;;;;;;10474978;28;20040;-80
2023/05/22 16:38:40;;;;;;;10.45;4.90;;;;;;;;;;10468015;28;20052;-80
2023/05/22 16:43:54;;;;;;;9.13;4.90;;;;;;;;;;10482341;28;20114;-79
2023/05/22 16:49:08;;;;;;;11.30;5.72;;;;;;;;;;10469940;28;20048;-79
2023/05/22 16:54:12;;;;;;;8.38;4.88;;;;;;;;;;10478649;28;20054;-78
2023/05/22 16:59:18;;;;;;;8.48;5.45;;;;;;;;;;10487603;28;20153;-80
2023/05/22 17:04:29;;;;;;;11.43;5.63;;;;;;;;;;10459411;28;20086;-78
2023/05/22 17:09:39;;;;;;;8.98;5.80;;;;;;;;;;10464190;28;20064;-79
2023/05/22 17:14:48;;;;;;;9.80;5.70;;;;;;;;;;10479261;28;20502;-80
2023/05/22 17:20:04;;;;;;;11.57;5.43;;;;;;;;;;10478388;28;20059;-78
2023/05/22 17:25:12;;;;;;;9.35;5.32;;;;;;;;;;10474826;28;20052;-79
2023/05/22 17:35:48;;;;;;;10.85;5.15;;;;;;;;;;10472864;28;20123;-78
2023/05/22 17:46:18;;;;;;;11.25;5.40;;;;;;;;;;10469211;28;20127;-79
2023/05/22 17:51:31;;;;;;;10.50;5.68;;;;;;;;;;10463842;28;20048;-79
2023/05/22 17:56:36;;;;;;;11.38;5.82;;;;;;;;;;10431313;28;20048;-78
2023/05/22 18:01:43;;;;;;;15.35;7.65;;;;;;;;;;10453220;28;20048;-80
2023/05/22 18:06:51;;;;;;;12.13;6.30;;;;;;;;;;10458421;28;20048;-79
2023/05/22 18:11:57;;;;;;;12.38;7.35;;;;;;;;;;10474850;28;20462;-79
2023/05/22 18:17:11;;;;;;;11.65;6.80;;;;;;;;;;10470880;28;20175;-78
2023/05/22 18:22:20;;;;;;;13.60;6.38;;;;;;;;;;10464503;28;20429;-81
2023/05/22 18:27:33;;;;;;;16.38;7.22;;;;;;;;;;10475717;28;20141;-79
2023/05/22 18:32:39;;;;;;;18.02;6.88;;;;;;;;;;10445660;28;20634;-79
2023/05/22 18:37:54;;;;;;;11.82;6.18;;;;;;;;;;10459852;28;20125;-79
2023/05/22 18:43:02;;;;;;;13.25;6.30;;;;;;;;;;10469828;28;20057;-79
2023/05/22 18:48:08;;;;;;;11.52;5.88;;;;;;;;;;10461124;28;20032;-80
2023/05/22 18:53:37;;;;;;;10.85;5.60;;;;;;;;;;10469477;28;20472;-78
2023/05/22 18:58:47;;;;;;;9.95;4.43;;;;;;;;;;10472686;28;20041;-79
2023/05/22 19:03:52;;;;;;;11.48;5.03;;;;;;;;;;10474280;28;20048;-79
2023/05/22 19:09:02;;;;;;;11.30;4.63;;;;;;;;;;10461869;28;20040;-78
2023/05/22 19:14:08;;;;;;;10.73;5.80;;;;;;;;;;10452629;28;20041;-79
2023/05/22 19:19:14;;;;;;;11.75;5.38;;;;;;;;;;10466537;28;20357;-79
2023/05/22 19:24:29;;;;;;;9.70;5.43;;;;;;;;;;10452019;28;20049;-81
2023/05/22 19:29:33;;;;;;;9.75;5.05;;;;;;;;;;10461024;28;20497;-79
2023/05/22 19:34:52;;;;;;;10.50;5.75;;;;;;;;;;10473644;28;20382;-78
2023/05/22 19:40:01;;;;;;;10.32;5.35;;;;;;;;;;10460866;28;20041;-79
2023/05/22 19:45:13;;;;;;;11.73;5.95;;;;;;;;;;10477358;28;20228;-79
2023/05/22 19:50:24;;;;;;;9.95;5.82;;;;;;;;;;10472428;28;20043;-78
2023/05/22 19:55:45;;;;;;;13.25;6.47;;;;;;;;;;10476052;28;20048;-78
2023/05/22 20:00:54;;;;;;;12.63;6.68;;;;;;;;;;10466492;28;20131;-78
2023/05/22 20:06:02;;;;;;;11.57;6.68;;;;;;;;;;10463380;28;20072;-78
2023/05/22 20:16:39;;;;;;;9.80;3.35;;;;;;;;;;10480022;28;20131;-78
2023/05/22 20:21:58;;;;;;;8.82;5.50;;;;;;;;;;10451741;28;20039;-81
2023/05/22 20:27:11;;;;;;;12.02;6.35;;;;;;;;;;10471799;28;20144;-78
2023/05/22 20:32:24;;;;;;;10.43;4.78;;;;;;;;;;10476073;28;20379;-79
2023/05/22 20:37:33;;;;;;;13.27;5.72;;;;;;;;;;10474478;28;20509;-77
2023/05/22 20:42:47;;;;;;;13.38;6.63;;;;;;;;;;10459718;28;20484;-78
2023/05/22 20:47:59;;;;;;;10.57;6.72;;;;;;;;;;10480398;28;20206;-78
2023/05/22 20:53:12;;;;;;;10.13;6.10;;;;;;;;;;10475902;28;20060;-80
2023/05/22 20:58:27;;;;;;;11.15;5.50;;;;;;;;;;10462583;28;20049;-78
2023/05/22 21:03:34;;;;;;;14.07;6.50;;;;;;;;;;10479897;28;20044;-78
2023/05/22 21:08:43;;;;;;;10.23;5.88;;;;;;;;;;10470171;28;20060;-79
2023/05/22 21:13:55;;;;;;;14.02;6.07;;;;;;;;;;10475949;28;20549;-79
2023/05/22 21:19:14;;;;;;;10.60;5.60;;;;;;;;;;10456231;28;20047;-79
2023/05/22 21:24:20;;;;;;;12.65;6.90;;;;;;;;;;10483208;28;20036;-78
2023/05/22 21:29:27;;;;;;;11.98;6.35;;;;;;;;;;10458963;28;20033;-80
2023/05/22 21:34:38;;;;;;;15.15;6.88;;;;;;;;;;10473410;28;20175;-79
2023/05/22 21:39:49;;;;;;;11.85;6.00;;;;;;;;;;10474827;28;20033;-79
2023/05/22 21:44:57;;;;;;;13.73;6.80;;;;;;;;;;10458926;28;20123;-78
2023/05/22 21:50:11;;;;;;;15.82;6.93;;;;;;;;;;10465197;28;20131;-79
2023/05/22 21:55:16;;;;;;;13.68;6.70;;;;;;;;;;10477649;28;20662;-78
2023/05/22 22:00:27;;;;;;;15.90;8.32;;;;;;;;;;10476163;28;20125;-78
2023/05/22 22:05:36;;;;;;;13.75;6.85;;;;;;;;;;10459248;28;20090;-79
2023/05/22 22:10:40;;;;;;;14.02;6.97;;;;;;;;;;10461403;28;20041;-78
2023/05/22 22:15:45;;;;;;;13.18;6.40;;;;;;;;;;10470480;28;20123;-79
2023/05/22 22:20:57;;;;;;;13.85;7.10;;;;;;;;;;10471635;28;20040;-79
2023/05/22 22:26:04;;;;;;;15.13;6.90;;;;;;;;;;10457116;28;20531;-77
2023/05/22 22:31:09;;;;;;;15.88;7.20;;;;;;;;;;10471693;28;20119;-78
2023/05/22 22:36:17;;;;;;;13.25;6.70;;;;;;;;;;10456605;28;20059;-78
2023/05/22 22:41:28;;;;;;;14.15;6.80;;;;;;;;;;10469820;28;20429;-80
2023/05/22 22:46:42;;;;;;;14.52;7.03;;;;;;;;;;10479051;28;20120;-78
2023/05/22 22:51:49;;;;;;;13.50;6.93;;;;;;;;;;10463512;28;20806;-78
2023/05/22 22:57:04;;;;;;;12.88;6.90;;;;;;;;;;10468288;28;20052;-78
2023/05/22 23:02:08;;;;;;;12.48;5.30;;;;;;;;;;10472980;28;20424;-81
2023/05/22 23:07:17;;;;;;;6.38;3.22;;;;;;;;;;10467749;28;20032;-77
2023/05/22 23:12:25;;;;;;;13.80;6.78;;;;;;;;;;10457003;28;20135;-80
2023/05/22 23:17:33;;;;;;;12.57;6.22;;;;;;;;;;10459627;28;20033;-78
2023/05/22 23:22:39;;;;;;;12.95;6.40;;;;;;;;;;10468178;28;20049;-78
2023/05/22 23:27:48;;;;;;;12.63;5.63;;;;;;;;;;10471104;28;20503;-79
2023/05/22 23:32:56;;;;;;;13.80;6.50;;;;;;;;;;10472486;28;20672;-79
2023/05/22 23:38:02;;;;;;;12.35;6.25;;;;;;;;;;10470538;28;20033;-78
2023/05/22 23:43:17;;;;;;;13.80;6.43;;;;;;;;;;10437918;28;20044;-78
2023/05/22 23:48:32;;;;;;;10.77;5.40;;;;;;;;;;10455246;28;20041;-78
2023/05/22 23:53:41;;;;;;;7.35;4.43;;;;;;;;;;10466807;28;20528;-78
2023/05/22 23:58:48;;;;;;;11.55;5.28;;;;;;;;;;10470250;28;20497;-77
